Time,TemperatureF,DewpointF,PressureIn,WindDirection,WindDirectionDegrees,WindSpeedMPH,WindSpeedGustMPH,Humidity,HourlyPrecipIn,Conditions,Clouds,dailyrainin,SoftwareType,DateUTC
2013-02-14 00:01:00,36.0,31.0,-100.00,North,360,11.0,16.0,81,-99.99,,,-99.99,,2013-02-14 05:01:00,
2013-02-14 00:11:00,36.0,31.0,-100.00,North,360,11.0,16.0,81,-99.99,,,-99.99,,2013-02-14 05:11:00,
2013-02-14 15:31:00,41.0,25.0,-100.00,South,170,2.0,2.0,53,-99.99,,,-99.99,,2013-02-14 20:31:00,
2013-02-14 15:41:00,41.0,25.0,-100.00,South,170,2.0,2.0,53,-99.99,,,-99.99,,2013-02-14 20:41:00,
2013-02-14 15:51:00,45.0,22.0,-100.00,North,0,0.0,2.0,39,-99.99,,,-99.99,,2013-02-14 20:51:00,
2013-02-14 16:01:00,45.0,22.0,-100.00,North,0,0.0,2.0,39,-99.99,,,-99.99,,2013-02-14 21:01:00,
2013-02-14 16:11:00,42.0,22.0,-100.00,ESE,110,2.0,2.0,43,-99.99,,,-99.99,,2013-02-14 21:11:00,
2013-02-14 16:21:00,42.0,22.0,-100.00,ESE,110,2.0,2.0,43,-99.99,,,-99.99,,2013-02-14 21:21:00,
2013-02-14 16:31:00,42.0,22.0,-100.00,ESE,110,2.0,2.0,43,-99.99,,,-99.99,,2013-02-14 21:31:00,
2013-02-14 16:41:00,42.0,22.0,-100.00,ESE,110,2.0,2.0,43,-99.99,,,-99.99,,2013-02-14 21:41:00,
2013-02-14 16:51:00,41.0,29.0,-100.00,East,100,2.0,7.0,62,-99.99,,,-99.99,,2013-02-14 21:51:00,
2013-02-14 17:01:00,41.0,29.0,-100.00,East,100,2.0,7.0,62,-99.99,,,-99.99,,2013-02-14 22:01:00,
2013-02-14 17:11:00,40.0,28.0,-100.00,SE,130,2.0,4.0,61,-99.99,,,-99.99,,2013-02-14 22:11:00,
2013-02-14 17:21:00,40.0,28.0,-100.00,SE,130,2.0,4.0,61,-99.99,,,-99.99,,2013-02-14 22:21:00,
2013-02-14 17:31:00,40.0,28.0,-100.00,SE,130,2.0,4.0,61,-99.99,,,-99.99,,2013-02-14 22:31:00,
2013-02-14 17:41:00,40.0,28.0,-100.00,SE,130,2.0,4.0,61,-99.99,,,-99.99,,2013-02-14 22:41:00,
2013-02-14 17:51:00,39.0,29.0,-100.00,SE,130,4.0,7.0,67,-99.99,,,-99.99,,2013-02-14 22:51:00,
2013-02-14 18:01:00,39.0,29.0,-100.00,SE,130,4.0,7.0,67,-99.99,,,-99.99,,2013-02-14 23:01:00,
2013-02-14 18:11:00,39.0,29.0,-100.00,SE,130,4.0,7.0,67,-99.99,,,-99.99,,2013-02-14 23:11:00,
2013-02-14 18:21:00,41.0,29.0,-100.00,South,180,4.0,7.0,61,-99.99,,,-99.99,,2013-02-14 23:21:00,
2013-02-14 18:31:00,41.0,29.0,-100.00,South,180,4.0,7.0,61,-99.99,,,-99.99,,2013-02-14 23:31:00,
2013-02-14 18:41:00,41.0,29.0,-100.00,South,180,4.0,7.0,61,-99.99,,,-99.99,,2013-02-14 23:41:00,
2013-02-14 18:51:00,40.0,31.0,-100.00,South,180,7.0,9.0,68,-99.99,,,-99.99,,2013-02-14 23:51:00,
2013-02-14 19:01:00,40.0,31.0,-100.00,South,180,7.0,9.0,68,-99.99,,,-99.99,,2013-02-15 00:01:00,
2013-02-14 19:11:00,40.0,31.0,-100.00,South,180,7.0,9.0,68,-99.99,,,-99.99,,2013-02-15 00:11:00,
2013-02-14 19:21:00,39.0,31.0,-100.00,South,190,7.0,9.0,70,-99.99,,,-99.99,,2013-02-15 00:21:00,
2013-02-14 19:31:00,39.0,31.0,-100.00,South,190,7.0,9.0,70,-99.99,,,-99.99,,2013-02-15 00:31:00,
2013-02-14 19:41:00,39.0,31.0,-100.00,South,190,7.0,9.0,70,-99.99,,,-99.99,,2013-02-15 00:41:00,
2013-02-14 19:51:00,39.0,31.0,-100.00,South,180,11.0,13.0,74,-99.99,,,-99.99,,2013-02-15 00:51:00,
2013-02-14 20:01:00,39.0,31.0,-100.00,South,180,11.0,13.0,74,-99.99,,,-99.99,,2013-02-15 01:01:00,
2013-02-14 20:11:00,39.0,32.0,-100.00,South,180,13.0,16.0,75,-99.99,,,-99.99,,2013-02-15 01:11:00,
2013-02-14 20:21:00,39.0,32.0,-100.00,South,180,13.0,16.0,75,-99.99,,,-99.99,,2013-02-15 01:21:00,
2013-02-14 20:31:00,39.0,32.0,-100.00,South,180,13.0,16.0,75,-99.99,,,-99.99,,2013-02-15 01:31:00,
2013-02-14 20:41:00,39.0,32.0,-100.00,South,180,13.0,16.0,75,-99.99,,,-99.99,,2013-02-15 01:41:00,
2013-02-14 20:51:00,39.0,32.0,-100.00,South,180,11.0,13.0,77,-99.99,,,-99.99,,2013-02-15 01:51:00,
2013-02-14 21:01:00,39.0,32.0,-100.00,South,180,11.0,13.0,77,-99.99,,,-99.99,,2013-02-15 02:01:00,
2013-02-14 21:11:00,39.0,32.0,-100.00,South,180,11.0,13.0,77,-99.99,,,-99.99,,2013-02-15 02:11:00,
2013-02-14 21:21:00,38.0,34.0,-100.00,South,190,9.0,11.0,82,-99.99,,,-99.99,,2013-02-15 02:21:00,
2013-02-14 21:31:00,38.0,34.0,-100.00,South,190,9.0,11.0,82,-99.99,,,-99.99,,2013-02-15 02:31:00,
2013-02-14 21:41:00,38.0,34.0,-100.00,South,190,9.0,11.0,82,-99.99,,,-99.99,,2013-02-15 02:41:00,
2013-02-14 21:51:00,38.0,35.0,-100.00,South,190,9.0,11.0,87,-99.99,,,-99.99,,2013-02-15 02:51:00,
2013-02-14 22:01:00,38.0,35.0,-100.00,South,190,9.0,11.0,87,-99.99,,,-99.99,,2013-02-15 03:01:00,
2013-02-14 22:11:00,38.0,35.0,-100.00,South,190,9.0,11.0,87,-99.99,,,-99.99,,2013-02-15 03:11:00,
2013-02-14 22:21:00,38.0,36.0,-100.00,South,180,9.0,9.0,91,-99.99,,,-99.99,,2013-02-15 03:21:00,
2013-02-14 22:31:00,38.0,36.0,-100.00,South,180,9.0,9.0,91,-99.99,,,-99.99,,2013-02-15 03:31:00,
2013-02-14 22:41:00,38.0,36.0,-100.00,South,180,9.0,9.0,91,-99.99,,,-99.99,,2013-02-15 03:41:00,
2013-02-14 22:51:00,38.0,36.0,-100.00,South,190,7.0,9.0,91,-99.99,,,-99.99,,2013-02-15 03:51:00,
2013-02-14 23:01:00,38.0,36.0,-100.00,South,190,7.0,9.0,91,-99.99,,,-99.99,,2013-02-15 04:01:00,
2013-02-14 23:11:00,38.0,36.0,-100.00,South,190,7.0,9.0,91,-99.99,,,-99.99,,2013-02-15 04:11:00,
2013-02-14 23:21:00,38.0,36.0,-100.00,South,190,7.0,9.0,91,-99.99,,,-99.99,,2013-02-15 04:21:00,
2013-02-14 23:31:00,38.0,36.0,-100.00,South,190,7.0,9.0,91,-99.99,,,-99.99,,2013-02-15 04:31:00,
2013-02-14 23:41:00,38.0,36.0,-100.00,South,190,7.0,9.0,91,-99.99,,,-99.99,,2013-02-15 04:41:00,
2013-02-14 23:51:00,38.0,36.0,-100.00,South,190,7.0,7.0,92,-99.99,,,-99.99,,2013-02-15 04:51:00,